Time;durP1;ratioP1;P1;durP2;ratioP2;P2;SDS_P1;SDS_P2;PMS_P1;PMS_P2;Temp;Humidity;BMP_temperature;BMP_pressure;BME280_temperature;BME280_humidity;BME280_pressure;Samples;Min_cycle;Max_cycle;Signal;HPM_P1;HPM_P2
2023/07/25 00:00:10;;;;;;;5.23;4.83;;;18.90;99.90;;;;;;4991080;28;20395;-60
2023/07/25 00:02:36;;;;;;;5.30;4.80;;;19.00;99.90;;;;;;4993101;28;20407;-61
2023/07/25 00:05:05;;;;;;;4.83;4.53;;;19.00;99.90;;;;;;4993140;28;21008;-61
2023/07/25 00:07:31;;;;;;;5.77;5.03;;;18.90;99.90;;;;;;4992614;28;20449;-61
2023/07/25 00:09:58;;;;;;;5.07;4.70;;;18.90;99.90;;;;;;4991691;28;20949;-61
2023/07/25 00:12:24;;;;;;;4.90;4.50;;;18.90;99.90;;;;;;4991751;28;20180;-61
2023/07/25 00:14:50;;;;;;;6.77;4.73;;;18.90;99.90;;;;;;4992546;28;20509;-61
2023/07/25 00:17:15;;;;;;;5.80;4.77;;;18.90;99.90;;;;;;4992217;28;20499;-61
2023/07/25 00:19:41;;;;;;;4.40;4.10;;;18.90;99.90;;;;;;4993089;28;20231;-61
2023/07/25 00:22:07;;;;;;;5.17;4.60;;;18.90;99.90;;;;;;4992285;28;20524;-61
2023/07/25 00:24:32;;;;;;;5.53;5.17;;;18.90;99.90;;;;;;4992151;28;20175;-61
2023/07/25 00:26:58;;;;;;;6.00;4.57;;;18.90;99.90;;;;;;4993002;28;20258;-61
2023/07/25 00:29:24;;;;;;;4.60;4.40;;;18.90;99.90;;;;;;4992218;28;20180;-61
2023/07/25 00:31:50;;;;;;;5.23;4.93;;;18.90;99.90;;;;;;4992050;28;20179;-61
2023/07/25 00:34:15;;;;;;;5.40;5.10;;;18.90;99.90;;;;;;4991623;28;20318;-61
2023/07/25 00:36:41;;;;;;;5.20;4.90;;;18.90;99.90;;;;;;4993264;28;20223;-61
2023/07/25 00:39:07;;;;;;;4.70;4.43;;;18.90;99.90;;;;;;4992589;28;20187;-61
2023/07/25 00:41:32;;;;;;;5.13;4.73;;;18.80;99.90;;;;;;4991799;28;20314;-61
2023/07/25 00:43:59;;;;;;;5.20;4.80;;;18.90;99.90;;;;;;4991861;28;20267;-61
2023/07/25 00:46:25;;;;;;;4.90;4.60;;;18.90;99.90;;;;;;4995537;28;20199;-61
2023/07/25 00:48:51;;;;;;;5.27;4.90;;;18.90;99.90;;;;;;4995239;28;20422;-61
2023/07/25 00:51:16;;;;;;;5.43;5.13;;;18.90;99.90;;;;;;4995575;28;20269;-61
2023/07/25 00:53:42;;;;;;;5.90;5.50;;;18.90;99.90;;;;;;4996185;28;20419;-61
2023/07/25 00:56:10;;;;;;;5.43;4.93;;;18.90;99.90;;;;;;4995136;28;20184;-62
2023/07/25 00:58:36;;;;;;;5.67;5.33;;;18.90;99.90;;;;;;4993709;28;20423;-62
2023/07/25 01:01:06;;;;;;;5.60;5.20;;;18.90;99.90;;;;;;4996389;28;20414;-61
2023/07/25 01:03:36;;;;;;;5.97;5.57;;;18.90;99.90;;;;;;4977463;28;20411;-61
2023/07/25 01:06:05;;;;;;;5.77;5.40;;;19.00;99.90;;;;;;4979867;28;20458;-61
2023/07/25 01:08:31;;;;;;;5.23;4.90;;;19.00;99.90;;;;;;4976969;28;20428;-61
2023/07/25 01:10:57;;;;;;;4.77;4.50;;;18.90;99.90;;;;;;4995297;28;20442;-62
2023/07/25 01:13:24;;;;;;;5.43;5.10;;;18.90;99.90;;;;;;4993869;28;20938;-61
2023/07/25 01:15:51;;;;;;;6.73;6.17;;;19.00;99.90;;;;;;4995008;28;20644;-62
2023/07/25 01:18:18;;;;;;;5.80;5.30;;;19.00;99.90;;;;;;4995757;28;20481;-61
2023/07/25 01:20:47;;;;;;;5.83;5.50;;;19.00;99.90;;;;;;4995976;28;20421;-62
2023/07/25 01:23:14;;;;;;;5.20;4.90;;;19.00;99.90;;;;;;4988493;28;20408;-59
2023/07/25 01:25:39;;;;;;;6.53;6.03;;;19.00;99.90;;;;;;4976315;28;20447;-62
2023/07/25 01:28:05;;;;;;;5.80;5.40;;;19.00;99.90;;;;;;4976717;28;21031;-62
2023/07/25 01:30:31;;;;;;;7.43;5.73;;;19.00;99.90;;;;;;4984847;28;20176;-62
2023/07/25 01:32:57;;;;;;;6.10;5.60;;;19.00;99.90;;;;;;4994451;28;20183;-62
2023/07/25 01:35:23;;;;;;;5.37;5.00;;;19.00;99.90;;;;;;4994988;28;20458;-62
2023/07/25 01:37:48;;;;;;;6.23;5.73;;;18.90;99.90;;;;;;4981925;28;20208;-62
2023/07/25 01:40:14;;;;;;;5.40;5.00;;;18.90;99.90;;;;;;4975526;28;20225;-61
2023/07/25 01:42:40;;;;;;;6.47;6.00;;;19.00;99.90;;;;;;4981194;28;20230;-61
2023/07/25 01:45:06;;;;;;;6.00;5.60;;;18.90;99.90;;;;;;4994482;28;20534;-61
2023/07/25 01:47:33;;;;;;;5.93;5.53;;;18.90;99.90;;;;;;4994895;28;20254;-62
2023/07/25 01:49:58;;;;;;;6.50;6.10;;;18.90;99.90;;;;;;4995189;28;20430;-62
2023/07/25 01:52:24;;;;;;;7.00;6.50;;;18.90;99.90;;;;;;4994779;28;20402;-61
2023/07/25 01:54:52;;;;;;;7.07;6.57;;;18.90;99.90;;;;;;4995158;28;20524;-62
2023/07/25 01:57:18;;;;;;;6.87;6.37;;;18.90;99.90;;;;;;4993670;28;20237;-61
2023/07/25 01:59:44;;;;;;;6.73;6.23;;;18.90;99.90;;;;;;4994970;28;20406;-62
2023/07/25 02:02:09;;;;;;;6.80;6.30;;;18.90;99.90;;;;;;4993071;28;20263;-62
2023/07/25 02:04:35;;;;;;;7.23;6.60;;;18.80;99.90;;;;;;4994302;28;20215;-61
2023/07/25 02:07:01;;;;;;;6.87;6.47;;;18.90;99.90;;;;;;4995134;28;20230;-61
2023/07/25 02:09:27;;;;;;;7.03;6.53;;;18.90;99.90;;;;;;4994442;28;20226;-61
2023/07/25 02:11:53;;;;;;;6.67;6.27;;;18.80;99.90;;;;;;4994944;28;20180;-62
2023/07/25 02:14:19;;;;;;;6.53;6.03;;;18.90;99.90;;;;;;4992197;28;20598;-61
2023/07/25 02:16:45;;;;;;;6.37;5.87;;;18.80;99.90;;;;;;4994167;28;20454;-61
2023/07/25 02:19:10;;;;;;;6.57;6.07;;;18.80;99.90;;;;;;4994847;28;20191;-61
2023/07/25 02:21:36;;;;;;;6.53;6.13;;;18.80;99.90;;;;;;4993791;28;20183;-61
2023/07/25 02:24:02;;;;;;;7.27;6.60;;;18.80;99.90;;;;;;4994815;28;20176;-61
2023/07/25 02:26:28;;;;;;;7.57;6.73;;;18.80;99.90;;;;;;4994101;28;20211;-61
2023/07/25 02:28:53;;;;;;;6.40;5.90;;;18.80;99.90;;;;;;4994494;28;20182;-61
2023/07/25 02:31:19;;;;;;;6.60;6.00;;;18.80;99.90;;;;;;4993727;28;20622;-61
2023/07/25 02:33:45;;;;;;;6.47;6.07;;;18.70;99.90;;;;;;4994036;28;20179;-61
2023/07/25 02:36:10;;;;;;;7.30;6.60;;;18.70;99.90;;;;;;4994585;28;20630;-62
2023/07/25 02:38:36;;;;;;;6.47;6.10;;;18.70;99.90;;;;;;4993862;28;20187;-62
2023/07/25 02:41:02;;;;;;;7.00;6.30;;;18.70;99.90;;;;;;4994219;28;20679;-61
2023/07/25 02:43:28;;;;;;;7.10;6.60;;;18.70;99.90;;;;;;4992988;28;20466;-61
2023/07/25 02:45:54;;;;;;;7.03;6.23;;;18.70;99.90;;;;;;4993206;28;20199;-62
2023/07/25 02:48:20;;;;;;;8.87;6.87;;;18.70;99.90;;;;;;4993728;28;20208;-61
2023/07/25 02:50:45;;;;;;;6.60;6.20;;;18.70;99.90;;;;;;4994601;28;20571;-62
2023/07/25 02:53:11;;;;;;;7.23;6.50;;;18.70;99.90;;;;;;4994231;28;20903;-61
2023/07/25 02:55:38;;;;;;;10.50;6.77;;;18.70;99.90;;;;;;4993612;28;20183;-61
2023/07/25 02:58:04;;;;;;;7.13;6.53;;;18.70;99.90;;;;;;4993594;28;20199;-62
2023/07/25 03:00:30;;;;;;;7.30;6.60;;;18.70;99.90;;;;;;4993057;28;20782;-62
2023/07/25 03:02:56;;;;;;;6.43;6.03;;;18.70;99.90;;;;;;4994037;28;20403;-62
2023/07/25 03:05:21;;;;;;;7.60;6.80;;;18.70;99.90;;;;;;4991328;28;20200;-61
2023/07/25 03:07:47;;;;;;;6.53;5.93;;;18.70;99.90;;;;;;4993040;28;20501;-61
2023/07/25 03:10:13;;;;;;;6.53;5.93;;;18.70;99.90;;;;;;4993605;28;20319;-62
2023/07/25 03:12:39;;;;;;;7.03;6.60;;;18.60;99.90;;;;;;4992257;28;20632;-62
2023/07/25 03:15:05;;;;;;;10.50;7.00;;;18.60;99.90;;;;;;4993552;28;21016;-62
2023/07/25 03:17:32;;;;;;;6.63;6.13;;;18.60;99.90;;;;;;4993022;28;20210;-61
2023/07/25 03:19:57;;;;;;;6.73;6.30;;;18.60;99.90;;;;;;4993421;28;20427;-61
2023/07/25 03:22:23;;;;;;;6.17;5.87;;;18.60;99.90;;;;;;4992810;28;20417;-61
2023/07/25 03:24:49;;;;;;;6.97;6.47;;;18.60;99.90;;;;;;4993594;28;20179;-62
2023/07/25 03:27:17;;;;;;;6.10;5.70;;;18.60;99.90;;;;;;4993377;28;20636;-62
2023/07/25 03:29:43;;;;;;;6.47;5.97;;;18.60;99.90;;;;;;4991670;28;20415;-62
2023/07/25 03:32:09;;;;;;;6.60;6.00;;;18.60;99.90;;;;;;4993603;28;20419;-62
2023/07/25 03:34:34;;;;;;;7.10;6.50;;;18.60;99.90;;;;;;4992217;28;20902;-61
2023/07/25 03:37:00;;;;;;;7.57;7.07;;;18.50;99.90;;;;;;4993675;28;20267;-62
2023/07/25 03:39:26;;;;;;;6.73;6.13;;;18.60;99.90;;;;;;4993125;28;20528;-62
2023/07/25 03:41:52;;;;;;;7.03;6.53;;;18.60;99.90;;;;;;4991227;28;20283;-61
2023/07/25 03:44:19;;;;;;;9.40;8.73;;;18.60;99.90;;;;;;4991582;28;20203;-61
2023/07/25 03:46:45;;;;;;;5.60;5.10;;;18.60;99.90;;;;;;4991716;28;20258;-62
2023/07/25 03:49:11;;;;;;;8.30;7.80;;;18.50;99.90;;;;;;4975867;28;20451;-61
2023/07/25 03:51:37;;;;;;;6.60;6.10;;;18.50;99.90;;;;;;4992807;28;20186;-61
2023/07/25 03:54:03;;;;;;;5.60;5.10;;;18.50;99.90;;;;;;4993310;28;20403;-62
2023/07/25 03:56:29;;;;;;;7.47;6.77;;;18.40;99.90;;;;;;4992689;28;20184;-61
2023/07/25 03:58:55;;;;;;;6.37;5.97;;;18.40;99.90;;;;;;4992744;28;20895;-61
2023/07/25 04:01:21;;;;;;;5.93;5.53;;;18.30;99.90;;;;;;4993288;28;20176;-62
2023/07/25 04:03:47;;;;;;;6.87;6.10;;;18.40;99.90;;;;;;4992898;28;20179;-61
2023/07/25 04:06:12;;;;;;;11.30;5.87;;;18.30;99.90;;;;;;4993254;28;20484;-62
2023/07/25 04:08:38;;;;;;;6.10;5.70;;;18.30;99.90;;;;;;4992415;28;20191;-61
2023/07/25 04:11:04;;;;;;;8.63;7.93;;;18.30;99.90;;;;;;4993154;28;20258;-62
2023/07/25 04:13:29;;;;;;;6.00;5.50;;;18.20;99.90;;;;;;4991237;28;20270;-61
2023/07/25 04:15:55;;;;;;;6.80;6.40;;;18.20;99.90;;;;;;4993278;28;20258;-62
2023/07/25 04:18:21;;;;;;;6.60;6.10;;;18.20;99.90;;;;;;4993172;28;20295;-61
2023/07/25 04:20:47;;;;;;;6.60;6.00;;;18.20;99.90;;;;;;4995375;28;20535;-62
2023/07/25 04:23:12;;;;;;;6.93;6.43;;;18.10;99.90;;;;;;4996627;28;20585;-61
2023/07/25 04:25:38;;;;;;;6.23;5.80;;;18.10;99.90;;;;;;4996087;28;20211;-61
2023/07/25 04:28:04;;;;;;;6.87;6.27;;;18.10;99.90;;;;;;4995813;28;20172;-62
2023/07/25 04:30:30;;;;;;;7.03;6.63;;;18.10;99.90;;;;;;4995610;28;20238;-61
2023/07/25 04:32:55;;;;;;;7.00;6.40;;;18.10;99.90;;;;;;4997072;28;20628;-62
2023/07/25 04:35:21;;;;;;;7.17;6.57;;;18.10;99.90;;;;;;4996607;28;20224;-62
2023/07/25 04:37:47;;;;;;;6.63;6.23;;;18.10;99.90;;;;;;4996200;28;20263;-62
2023/07/25 04:40:13;;;;;;;7.30;6.70;;;18.10;99.90;;;;;;4996978;28;20224;-61
2023/07/25 04:42:39;;;;;;;7.37;6.77;;;18.10;99.90;;;;;;4994583;28;20183;-61
2023/07/25 04:45:05;;;;;;;8.33;7.63;;;18.10;99.90;;;;;;4994969;28;20457;-61
2023/07/25 04:47:31;;;;;;;7.47;6.80;;;18.10;99.90;;;;;;4992359;28;20270;-60
2023/07/25 04:49:56;;;;;;;7.50;6.90;;;18.10;99.90;;;;;;4996298;28;20512;-61
2023/07/25 04:52:22;;;;;;;7.33;6.73;;;18.10;99.90;;;;;;4996030;28;20176;-60
2023/07/25 04:54:49;;;;;;;6.50;6.10;;;18.20;99.90;;;;;;4994349;28;20172;-61
2023/07/25 04:57:16;;;;;;;8.03;7.30;;;18.20;99.90;;;;;;4996335;28;20215;-61
2023/07/25 04:59:41;;;;;;;8.33;6.90;;;18.20;99.90;;;;;;4995507;28;20887;-62
2023/07/25 05:02:07;;;;;;;7.30;6.60;;;18.30;99.90;;;;;;4996485;28;20397;-61
2023/07/25 05:04:33;;;;;;;7.43;6.83;;;18.30;99.90;;;;;;4994906;28;20262;-61
2023/07/25 05:06:59;;;;;;;6.87;6.37;;;18.30;99.90;;;;;;4995064;28;20281;-61
2023/07/25 05:09:24;;;;;;;7.73;7.23;;;18.30;99.90;;;;;;4996157;28;20187;-62
2023/07/25 05:11:51;;;;;;;8.13;7.33;;;18.40;99.90;;;;;;4995515;28;20186;-61
2023/07/25 05:14:17;;;;;;;6.07;5.57;;;18.40;99.90;;;;;;4995873;28;20188;-63
2023/07/25 05:16:43;;;;;;;7.70;7.07;;;18.40;99.90;;;;;;4993562;28;20434;-61
2023/07/25 05:19:09;;;;;;;7.03;6.33;;;18.40;99.90;;;;;;4996119;28;20409;-61
2023/07/25 05:21:34;;;;;;;6.93;6.07;;;18.50;99.90;;;;;;4995434;28;20536;-61
2023/07/25 05:24:01;;;;;;;6.60;6.10;;;18.40;99.90;;;;;;4995545;28;20222;-61
2023/07/25 05:26:27;;;;;;;7.70;7.00;;;18.50;99.90;;;;;;4994488;28;20310;-62
2023/07/25 05:28:52;;;;;;;6.83;6.23;;;18.50;99.90;;;;;;4990525;28;20466;-61
2023/07/25 05:31:18;;;;;;;7.20;6.60;;;18.50;99.90;;;;;;4984120;28;20452;-62
2023/07/25 05:33:44;;;;;;;7.03;6.43;;;18.50;99.90;;;;;;4989691;28;20191;-61
2023/07/25 05:36:10;;;;;;;7.10;6.50;;;18.50;99.90;;;;;;4978536;28;20239;-61
2023/07/25 05:38:36;;;;;;;6.53;5.87;;;18.50;99.90;;;;;;4980433;28;20180;-61
2023/07/25 05:41:02;;;;;;;8.57;6.33;;;18.40;99.90;;;;;;4994768;28;20426;-62
2023/07/25 05:43:28;;;;;;;6.63;6.23;;;18.40;99.90;;;;;;4986697;28;20263;-59
2023/07/25 05:45:54;;;;;;;6.33;5.60;;;18.40;99.90;;;;;;4985340;28;20570;-61
2023/07/25 05:48:20;;;;;;;6.63;6.03;;;18.40;99.90;;;;;;4990364;28;20176;-61
2023/07/25 05:50:52;;;;;;;8.40;6.57;;;18.40;99.90;;;;;;4993523;28;20187;-61
2023/07/25 05:53:18;;;;;;;7.17;6.40;;;18.40;99.90;;;;;;4995357;28;20176;-63
2023/07/25 05:55:48;;;;;;;8.00;7.30;;;18.40;99.90;;;;;;4994690;28;20407;-64
2023/07/25 05:58:15;;;;;;;7.90;7.30;;;18.40;99.90;;;;;;4988566;28;20504;-60
2023/07/25 06:00:41;;;;;;;6.17;5.53;;;18.50;99.90;;;;;;4994564;28;20489;-62
2023/07/25 06:03:12;;;;;;;7.93;7.23;;;18.50;99.90;;;;;;4993857;28;20783;-61
2023/07/25 06:05:37;;;;;;;7.13;5.87;;;18.50;99.90;;;;;;4992943;28;20455;-61
2023/07/25 06:08:04;;;;;;;6.03;5.63;;;18.60;99.90;;;;;;4995237;28;20807;-62
2023/07/25 06:10:30;;;;;;;5.87;5.47;;;18.60;99.90;;;;;;4994936;28;20443;-58
2023/07/25 06:12:56;;;;;;;8.53;6.30;;;18.60;99.90;;;;;;4994504;28;20857;-60
2023/07/25 06:15:21;;;;;;;6.80;6.30;;;18.60;99.90;;;;;;4994461;28;20502;-61
2023/07/25 06:17:47;;;;;;;9.43;8.60;;;18.60;99.90;;;;;;4994275;28;20195;-61
2023/07/25 06:20:13;;;;;;;7.50;7.00;;;18.70;99.90;;;;;;4994678;28;20171;-61
2023/07/25 06:22:39;;;;;;;5.10;4.60;;;18.80;99.90;;;;;;4994159;28;20198;-61
2023/07/25 06:25:07;;;;;;;8.87;6.50;;;18.80;99.90;;;;;;4992574;28;20215;-61
2023/07/25 06:27:33;;;;;;;6.60;6.00;;;18.90;99.90;;;;;;4990518;28;20670;-60
2023/07/25 06:30:00;;;;;;;6.50;6.00;;;18.90;99.90;;;;;;4988751;28;20939;-61
2023/07/25 06:32:26;;;;;;;6.83;6.33;;;18.90;99.90;;;;;;4991376;28;20586;-61
2023/07/25 06:34:52;;;;;;;7.97;7.27;;;19.00;99.90;;;;;;4991960;28;20818;-61
2023/07/25 06:37:17;;;;;;;7.10;6.50;;;19.00;99.90;;;;;;4990588;28;20175;-60
2023/07/25 06:39:43;;;;;;;8.47;7.07;;;19.00;99.90;;;;;;4993463;28;20172;-60
2023/07/25 06:42:09;;;;;;;8.37;7.60;;;19.10;99.90;;;;;;4993752;28;20266;-61
2023/07/25 06:44:35;;;;;;;10.77;7.30;;;19.10;99.90;;;;;;4993174;28;20415;-60
2023/07/25 06:47:00;;;;;;;8.37;7.40;;;19.10;99.90;;;;;;4992862;28;20203;-61
2023/07/25 06:49:30;;;;;;;8.77;7.57;;;19.20;99.90;;;;;;4993388;28;20196;-63
2023/07/25 06:51:56;;;;;;;8.67;7.07;;;19.50;99.90;;;;;;4992841;28;20518;-63
2023/07/25 06:54:22;;;;;;;9.13;6.63;;;19.80;99.90;;;;;;4988273;28;20527;-61
2023/07/25 06:56:47;;;;;;;7.17;6.47;;;20.10;99.90;;;;;;4991686;28;20624;-61
2023/07/25 06:59:13;;;;;;;10.80;9.90;;;20.30;99.90;;;;;;4993051;28;20435;-61
2023/07/25 07:01:40;;;;;;;6.23;5.70;;;20.50;99.90;;;;;;4993169;28;20190;-61
2023/07/25 07:04:05;;;;;;;5.70;5.30;;;20.70;99.90;;;;;;4993515;28;20501;-62
2023/07/25 07:06:31;;;;;;;9.53;8.63;;;20.90;99.90;;;;;;4993981;28;20554;-61
2023/07/25 07:08:57;;;;;;;7.60;6.43;;;21.00;99.90;;;;;;4992223;28;20180;-62
2023/07/25 07:11:23;;;;;;;8.10;7.40;;;21.10;99.90;;;;;;4993512;28;20179;-62
2023/07/25 07:13:49;;;;;;;9.13;8.23;;;21.30;99.90;;;;;;4992331;28;20426;-61
2023/07/25 07:16:15;;;;;;;6.70;6.10;;;21.40;99.90;;;;;;4985375;28;20431;-62
2023/07/25 07:18:40;;;;;;;18.60;14.63;;;21.50;99.90;;;;;;4990903;28;20188;-61
2023/07/25 07:21:06;;;;;;;14.57;11.80;;;21.60;99.90;;;;;;4990659;28;20183;-61
2023/07/25 07:23:33;;;;;;;7.27;6.67;;;21.60;99.90;;;;;;4987209;28;20642;-61
2023/07/25 07:25:58;;;;;;;13.37;10.47;;;21.70;99.90;;;;;;4990346;28;20462;-63
2023/07/25 07:28:24;;;;;;;6.53;5.93;;;21.80;99.90;;;;;;4993480;28;20786;-60
2023/07/25 07:30:51;;;;;;;7.37;6.67;;;21.80;99.90;;;;;;4989801;28;20192;-60
2023/07/25 07:33:19;;;;;;;6.50;6.00;;;21.90;99.90;;;;;;4991368;28;20227;-60
2023/07/25 07:35:45;;;;;;;8.30;6.60;;;21.90;99.90;;;;;;4992591;28;20473;-62
2023/07/25 07:38:11;;;;;;;5.63;5.20;;;22.00;99.90;;;;;;4993370;28;20427;-60
2023/07/25 07:40:37;;;;;;;8.40;7.70;;;22.00;99.90;;;;;;4992554;28;20539;-60
2023/07/25 07:43:03;;;;;;;7.43;6.73;;;22.00;99.90;;;;;;4993160;28;20506;-61
2023/07/25 07:45:30;;;;;;;6.10;5.70;;;22.10;99.90;;;;;;4993178;28;20286;-61
2023/07/25 07:47:56;;;;;;;7.47;6.97;;;22.10;99.90;;;;;;4992453;28;20183;-60
2023/07/25 07:50:22;;;;;;;7.23;6.70;;;22.10;99.90;;;;;;4992859;28;20423;-62
2023/07/25 07:52:48;;;;;;;9.60;8.70;;;22.10;99.90;;;;;;4992268;28;20184;-60
2023/07/25 07:55:15;;;;;;;11.40;10.10;;;22.10;99.90;;;;;;4990594;28;20215;-59
2023/07/25 07:57:46;;;;;;;6.90;6.30;;;22.10;99.90;;;;;;4992068;28;20450;-61
2023/07/25 08:00:14;;;;;;;528.73;398.20;;;22.10;99.90;;;;;;4991923;28;20919;-60
2023/07/25 08:02:44;;;;;;;224.67;170.30;;;22.10;99.90;;;;;;4989381;28;20428;-60
2023/07/25 08:05:11;;;;;;;32.10;28.10;;;22.10;99.90;;;;;;4992221;28;20993;-61
2023/07/25 08:07:37;;;;;;;10.83;9.77;;;22.10;99.90;;;;;;4989485;28;21003;-59
2023/07/25 08:10:04;;;;;;;8.70;5.70;;;22.10;99.90;;;;;;4986379;28;20765;-60
2023/07/25 08:12:30;;;;;;;12.63;11.43;;;22.10;99.90;;;;;;4992067;28;20419;-60
2023/07/25 08:14:56;;;;;;;6.03;5.63;;;22.10;99.90;;;;;;4991148;28;20738;-60
2023/07/25 08:17:22;;;;;;;5.77;5.30;;;22.00;99.90;;;;;;4987930;28;20471;-61
2023/07/25 08:19:48;;;;;;;6.17;5.57;;;22.00;99.90;;;;;;4989893;28;20417;-61
2023/07/25 08:22:14;;;;;;;6.10;5.50;;;22.00;99.90;;;;;;4989374;28;20418;-61
2023/07/25 08:24:40;;;;;;;6.07;4.83;;;21.90;99.70;;;;;;4989548;28;20481;-61
2023/07/25 08:27:07;;;;;;;4.53;3.77;;;21.60;98.20;;;;;;4992367;28;20203;-61
2023/07/25 08:29:32;;;;;;;5.50;5.10;;;21.40;98.60;;;;;;4992583;28;20411;-61
2023/07/25 08:31:58;;;;;;;5.57;5.10;;;21.30;99.40;;;;;;4991957;28;20465;-61
2023/07/25 08:34:24;;;;;;;4.73;4.43;;;21.10;99.90;;;;;;4991228;28;20275;-61
2023/07/25 08:36:50;;;;;;;4.50;4.20;;;21.00;99.80;;;;;;4992386;28;20227;-61
2023/07/25 08:39:15;;;;;;;6.30;5.17;;;20.90;99.90;;;;;;4993191;28;20183;-61
2023/07/25 08:41:51;;;;;;;5.37;4.87;;;20.80;99.90;;;;;;4990997;28;20230;-61
2023/07/25 08:44:20;;;;;;;5.63;5.00;;;20.60;99.90;;;;;;4991767;28;20306;-61
2023/07/25 08:46:48;;;;;;;6.00;5.50;;;20.60;99.90;;;;;;4992288;28;20454;-61
2023/07/25 08:49:15;;;;;;;5.83;5.30;;;20.50;99.90;;;;;;4991492;28;20505;-61
2023/07/25 08:51:43;;;;;;;6.50;6.07;;;20.40;99.90;;;;;;4992325;28;20411;-61
2023/07/25 08:54:15;;;;;;;5.10;4.47;;;20.40;99.90;;;;;;4992010;28;20453;-61
2023/07/25 08:56:41;;;;;;;4.87;4.37;;;20.30;99.90;;;;;;4992487;28;20425;-61
2023/07/25 08:59:08;;;;;;;4.43;4.13;;;20.20;99.90;;;;;;4990178;28;20427;-62
2023/07/25 09:01:34;;;;;;;6.93;6.23;;;20.20;99.90;;;;;;4992765;28;20820;-62
2023/07/25 09:04:01;;;;;;;4.80;4.40;;;20.10;99.90;;;;;;4992083;28;20910;-62
2023/07/25 09:06:28;;;;;;;6.27;5.67;;;20.10;99.90;;;;;;4994385;28;20465;-62
2023/07/25 09:08:54;;;;;;;4.80;4.60;;;20.10;99.90;;;;;;4995599;28;20450;-62
2023/07/25 09:11:22;;;;;;;5.40;4.90;;;20.10;99.90;;;;;;4995831;28;20439;-61
2023/07/25 09:13:49;;;;;;;5.23;4.50;;;20.10;99.90;;;;;;4995591;28;20238;-62
2023/07/25 09:16:15;;;;;;;4.80;3.93;;;20.10;99.90;;;;;;4996128;28;20421;-62
2023/07/25 09:18:42;;;;;;;4.70;4.00;;;20.00;99.90;;;;;;4995867;28;20904;-61
2023/07/25 09:21:08;;;;;;;4.80;4.40;;;20.10;99.90;;;;;;4996019;28;20469;-61
2023/07/25 09:23:34;;;;;;;5.33;4.90;;;20.10;99.90;;;;;;4993850;28;20827;-61
2023/07/25 09:26:10;;;;;;;4.83;4.53;;;20.10;99.90;;;;;;4993676;28;20966;-61
2023/07/25 09:28:47;;;;;;;4.63;3.90;;;20.10;99.90;;;;;;4995643;28;20509;-62
2023/07/25 09:31:13;;;;;;;4.50;4.10;;;20.10;99.90;;;;;;4995910;28;20875;-61
2023/07/25 09:33:39;;;;;;;4.97;4.57;;;20.10;99.90;;;;;;4995794;28;20407;-61
2023/07/25 09:36:05;;;;;;;5.40;4.60;;;20.20;99.90;;;;;;4995059;28;20242;-61
2023/07/25 09:38:33;;;;;;;3.93;3.70;;;20.20;99.90;;;;;;4995472;28;20782;-62
2023/07/25 09:41:01;;;;;;;4.87;4.50;;;20.30;99.90;;;;;;4994541;28;20424;-61
2023/07/25 09:43:28;;;;;;;5.07;4.67;;;20.30;99.90;;;;;;4977712;28;20521;-62
2023/07/25 09:45:55;;;;;;;6.80;4.40;;;20.40;99.60;;;;;;4994534;28;20451;-61
2023/07/25 09:48:21;;;;;;;4.97;4.57;;;20.60;99.80;;;;;;4994865;28;20925;-61
2023/07/25 09:50:48;;;;;;;4.73;4.43;;;20.70;99.90;;;;;;4994769;28;20415;-61
2023/07/25 09:53:16;;;;;;;5.20;4.77;;;20.80;99.30;;;;;;4992887;28;20914;-61
2023/07/25 09:55:43;;;;;;;16.23;14.17;;;20.90;99.30;;;;;;4993902;28;20418;-64
2023/07/25 09:58:09;;;;;;;7.07;6.47;;;21.00;99.90;;;;;;4994707;28;20494;-64
2023/07/25 10:00:35;;;;;;;4.83;4.50;;;21.20;99.90;;;;;;4994841;28;20494;-64
2023/07/25 10:03:01;;;;;;;15.63;12.50;;;21.30;99.90;;;;;;4993766;28;20168;-64
2023/07/25 10:05:28;;;;;;;51.40;19.13;;;21.40;99.90;;;;;;4994825;28;20459;-64
2023/07/25 10:07:56;;;;;;;39.20;16.67;;;21.50;99.90;;;;;;4993951;28;20191;-63
2023/07/25 10:10:23;;;;;;;20.90;11.37;;;21.60;99.90;;;;;;4995122;28;20415;-63
2023/07/25 10:12:49;;;;;;;8.63;7.30;;;21.70;99.90;;;;;;4994354;28;20415;-62
2023/07/25 10:15:15;;;;;;;21.20;19.13;;;21.70;98.40;;;;;;4994753;28;20926;-62
2023/07/25 10:17:41;;;;;;;5.10;4.70;;;21.70;96.60;;;;;;4993003;28;20611;-63
2023/07/25 10:20:18;;;;;;;6.07;5.57;;;21.70;95.80;;;;;;4994143;28;20414;-63
2023/07/25 10:22:43;;;;;;;5.93;4.83;;;21.60;95.50;;;;;;4991609;28;20402;-62
2023/07/25 10:25:17;;;;;;;13.03;11.83;;;21.60;95.90;;;;;;4994342;28;20458;-63
2023/07/25 10:27:43;;;;;;;8.83;8.13;;;21.60;96.50;;;;;;4992704;28;20437;-63
2023/07/25 10:30:24;;;;;;;8.70;6.33;;;21.60;96.80;;;;;;4993258;28;20407;-63
2023/07/25 10:32:56;;;;;;;6.70;6.20;;;21.60;96.60;;;;;;4982617;28;20188;-63
2023/07/25 10:35:49;;;;;;;4.60;4.20;;;21.60;96.50;;;;;;4993962;28;20469;-64
2023/07/25 10:38:43;;;;;;;7.03;5.97;;;21.70;96.60;;;;;;4994062;28;20407;-63
2023/07/25 10:41:08;;;;;;;4.43;4.10;;;21.80;96.50;;;;;;4982110;28;20466;-63
2023/07/25 10:43:49;;;;;;;4.43;4.10;;;22.00;96.70;;;;;;4994503;28;20419;-63
2023/07/25 10:46:22;;;;;;;7.87;4.97;;;22.10;96.50;;;;;;4994048;28;20549;-63
2023/07/25 10:49:04;;;;;;;5.50;4.97;;;22.20;96.50;;;;;;4991663;28;20438;-63
2023/07/25 10:51:48;;;;;;;11.17;9.03;;;22.10;93.60;;;;;;4992140;28;20414;-63
2023/07/25 10:54:17;;;;;;;13.07;11.90;;;21.90;96.60;;;;;;4987757;28;20428;-62
2023/07/25 10:57:14;;;;;;;12.30;10.77;;;22.00;96.40;;;;;;4991388;28;20415;-64
2023/07/25 11:00:10;;;;;;;11.77;9.47;;;22.00;95.60;;;;;;4992236;28;20403;-62
2023/07/25 11:02:42;;;;;;;14.00;9.23;;;22.00;94.70;;;;;;4989939;28;20447;-63
2023/07/25 11:05:14;;;;;;;6.60;6.00;;;22.00;93.70;;;;;;4990797;28;20439;-63
2023/07/25 11:07:47;;;;;;;9.63;8.83;;;22.10;92.80;;;;;;4992774;28;20415;-63
2023/07/25 11:10:23;;;;;;;57.27;48.87;;;22.10;92.40;;;;;;4993260;28;20435;-63
2023/07/25 11:12:51;;;;;;;240.17;190.07;;;22.20;92.40;;;;;;4993465;28;20410;-62
2023/07/25 11:15:17;;;;;;;108.50;89.07;;;22.30;94.10;;;;;;4993837;28;20477;-63
2023/07/25 11:17:43;;;;;;;55.03;48.83;;;22.30;94.10;;;;;;4993927;28;20407;-63
2023/07/25 11:20:21;;;;;;;38.53;34.13;;;22.30;93.30;;;;;;4993246;28;20429;-64
2023/07/25 11:22:49;;;;;;;28.03;25.03;;;22.30;92.70;;;;;;4993850;28;20171;-63
2023/07/25 11:25:15;;;;;;;20.97;18.83;;;22.30;92.80;;;;;;4993659;28;20447;-62
2023/07/25 11:27:42;;;;;;;15.27;13.77;;;22.20;92.00;;;;;;4992527;28;20434;-63
2023/07/25 11:30:16;;;;;;;12.43;11.20;;;22.20;91.80;;;;;;4992020;28;20903;-63
2023/07/25 11:32:52;;;;;;;10.43;9.43;;;22.20;92.20;;;;;;4993999;28;20394;-63
2023/07/25 11:35:24;;;;;;;7.80;7.20;;;22.20;92.20;;;;;;4992837;28;20819;-63
2023/07/25 11:37:57;;;;;;;7.20;6.50;;;22.10;92.10;;;;;;4993086;28;20466;-61
2023/07/25 11:40:27;;;;;;;6.80;6.20;;;22.10;92.40;;;;;;4991252;28;20431;-63
2023/07/25 11:42:53;;;;;;;6.10;5.60;;;22.00;92.70;;;;;;4990896;28;20966;-63
2023/07/25 11:45:20;;;;;;;66.87;59.63;;;22.00;92.80;;;;;;4991698;28;20475;-62
2023/07/25 11:47:49;;;;;;;33.23;25.07;;;22.00;92.60;;;;;;4993051;28;20176;-64
2023/07/25 11:50:20;;;;;;;12.97;11.53;;;22.00;93.40;;;;;;4992910;28;20435;-62
2023/07/25 11:52:47;;;;;;;11.43;10.23;;;22.00;93.20;;;;;;4990373;28;20501;-63
2023/07/25 11:55:13;;;;;;;9.27;8.27;;;22.00;93.60;;;;;;4992164;28;20746;-63
2023/07/25 11:57:43;;;;;;;6.77;6.27;;;21.90;93.80;;;;;;4992530;28;20478;-62
2023/07/25 12:00:15;;;;;;;6.10;5.60;;;21.90;94.00;;;;;;4982636;28;20514;-64
2023/07/25 12:02:42;;;;;;;5.40;5.00;;;21.90;94.00;;;;;;4991651;28;20415;-63
2023/07/25 12:05:29;;;;;;;5.50;5.00;;;21.90;93.80;;;;;;4989175;28;20820;-63
2023/07/25 12:08:03;;;;;;;5.23;4.93;;;22.00;94.10;;;;;;4990457;28;20490;-63
2023/07/25 12:10:34;;;;;;;4.90;4.53;;;22.00;94.10;;;;;;4990202;28;20406;-62
2023/07/25 12:13:08;;;;;;;6.20;4.37;;;22.00;93.70;;;;;;4992132;28;20430;-62
2023/07/25 12:15:45;;;;;;;4.70;4.30;;;22.10;93.50;;;;;;4991094;28;20408;-65
2023/07/25 12:18:30;;;;;;;5.27;4.80;;;22.10;92.80;;;;;;4988629;28;20434;-63
2023/07/25 12:20:58;;;;;;;4.70;4.40;;;22.10;92.10;;;;;;4990577;28;20462;-62
2023/07/25 12:23:30;;;;;;;5.40;4.90;;;22.20;92.00;;;;;;4992483;28;20419;-62
2023/07/25 12:25:57;;;;;;;5.30;4.80;;;22.20;92.10;;;;;;4991670;28;20450;-64
2023/07/25 12:28:24;;;;;;;5.80;5.30;;;22.20;91.80;;;;;;4991040;28;20427;-62
2023/07/25 12:30:50;;;;;;;4.90;4.53;;;22.10;91.80;;;;;;4988314;28;20466;-64
2023/07/25 12:33:16;;;;;;;5.80;5.20;;;22.10;92.00;;;;;;4974432;28;20407;-63
2023/07/25 12:35:41;;;;;;;4.60;4.20;;;22.10;92.10;;;;;;4991009;28;20965;-64
2023/07/25 12:38:07;;;;;;;4.47;4.10;;;22.10;92.30;;;;;;4991921;28;20211;-64
2023/07/25 12:40:33;;;;;;;4.40;3.90;;;22.10;92.20;;;;;;4993120;28;20175;-64
2023/07/25 12:42:59;;;;;;;3.97;3.67;;;22.10;92.30;;;;;;4995574;28;20182;-64
2023/07/25 12:45:24;;;;;;;4.10;3.70;;;22.20;92.70;;;;;;4995932;28;20201;-63